Time;durP1;ratioP1;P1;durP2;ratioP2;P2;SDS_P1;SDS_P2;PMS_P1;PMS_P2;Temp;Humidity;BMP_temperature;BMP_pressure;BME280_temperature;BME280_humidity;BME280_pressure;Samples;Min_cycle;Max_cycle;Signal;HPM_P1;HPM_P2
2022/08/02 00:01:30;;;;;;;6.82;2.05;;;;;;;15.12;100.00;100844.53;5087618;28;20119;-77
2022/08/02 00:03:55;;;;;;;3.88;2.30;;;;;;;14.94;100.00;100813.06;5063732;28;20086;-79
2022/08/02 00:06:20;;;;;;;4.78;2.28;;;;;;;14.98;100.00;100826.00;5068611;28;20029;-79
2022/08/02 00:08:46;;;;;;;5.88;2.47;;;;;;;14.88;100.00;100806.31;5063903;28;20025;-79
2022/08/02 00:11:11;;;;;;;4.03;2.08;;;;;;;15.12;100.00;100843.66;5066539;28;20226;-76
2022/08/02 00:13:37;;;;;;;4.38;1.88;;;;;;;14.93;100.00;100843.09;5060818;28;20029;-75
2022/08/02 00:16:03;;;;;;;3.42;1.80;;;;;;;14.93;100.00;100854.53;5056463;28;20039;-77
2022/08/02 00:18:28;;;;;;;6.13;2.00;;;;;;;14.86;100.00;100831.19;5072834;28;20036;-76
2022/08/02 00:20:53;;;;;;;5.22;2.47;;;;;;;14.84;100.00;100829.47;5058094;28;20027;-77
2022/08/02 00:23:19;;;;;;;4.80;2.10;;;;;;;14.84;100.00;100820.69;5072644;28;20051;-77
2022/08/02 00:25:44;;;;;;;5.57;2.72;;;;;;;14.80;100.00;100812.09;5077397;28;20021;-77
2022/08/02 00:28:10;;;;;;;3.90;2.30;;;;;;;14.75;100.00;100808.03;5063386;28;20086;-76
2022/08/02 00:30:36;;;;;;;5.72;2.42;;;;;;;14.86;100.00;100816.16;5076340;28;20028;-76
2022/08/02 00:33:01;;;;;;;4.72;2.05;;;;;;;14.94;100.00;100832.41;5072357;28;20463;-76
2022/08/02 00:35:27;;;;;;;4.60;1.70;;;;;;;14.97;100.00;100832.22;5055550;28;20033;-76
2022/08/02 00:37:52;;;;;;;7.97;2.60;;;;;;;14.98;100.00;100839.22;5053852;28;20041;-75
2022/08/02 00:40:21;;;;;;;5.03;2.88;;;;;;;14.58;100.00;100768.53;5061720;28;20025;-76
2022/08/02 00:42:59;;;;;;;4.95;2.50;;;;;;;15.06;100.00;100841.41;5080623;28;20391;-76
2022/08/02 00:45:25;;;;;;;10.35;2.67;;;;;;;15.12;100.00;100833.94;5083429;28;20032;-73
2022/08/02 00:47:50;;;;;;;7.05;3.00;;;;;;;15.06;100.00;100813.16;5074762;28;20031;-72
2022/08/02 00:50:16;;;;;;;6.35;2.50;;;;;;;15.28;100.00;100839.97;5086261;28;20027;-72
2022/08/02 00:52:41;;;;;;;5.30;2.70;;;;;;;15.25;100.00;100823.44;5082531;28;20074;-72
2022/08/02 00:55:07;;;;;;;8.40;3.15;;;;;;;15.19;100.00;100808.78;5089650;28;20470;-77
2022/08/02 00:57:32;;;;;;;9.57;2.38;;;;;;;15.00;100.00;100784.41;5117515;27;20043;-76
2022/08/02 00:59:58;;;;;;;11.90;3.05;;;;;;;15.29;100.00;100825.78;5066341;28;20029;-76
2022/08/02 01:02:23;;;;;;;5.72;2.42;;;;;;;15.15;100.00;100811.72;5069228;28;20040;-76
2022/08/02 01:04:48;;;;;;;6.60;3.20;;;;;;;15.12;100.00;100815.41;5091339;28;20475;-75
2022/08/02 01:07:14;;;;;;;7.82;3.00;;;;;;;15.08;100.00;100816.53;5062854;28;20109;-76
2022/08/02 01:09:41;;;;;;;4.95;2.50;;;;;;;14.99;100.00;100811.81;5060506;28;20016;-75
2022/08/02 01:12:07;;;;;;;4.15;2.28;;;;;;;15.11;100.00;100832.22;5093017;28;20055;-75
2022/08/02 01:14:32;;;;;;;6.15;2.30;;;;;;;15.03;100.00;100818.63;5078426;28;20029;-74
2022/08/02 01:17:06;;;;;;;8.63;2.72;;;;;;;15.07;100.00;100820.13;5079324;28;20029;-73
2022/08/02 01:19:37;;;;;;;3.85;2.00;;;;;;;14.98;100.00;100803.97;5068084;28;20024;-73
2022/08/02 01:22:21;;;;;;;5.43;2.38;;;;;;;15.10;100.00;100819.97;5058529;28;20044;-74
2022/08/02 01:24:55;;;;;;;4.70;2.53;;;;;;;15.06;100.00;100823.72;5053884;28;20037;-72
2022/08/02 01:27:51;;;;;;;5.97;2.83;;;;;;;14.98;100.00;100815.41;5060370;28;20403;-73
2022/08/02 01:30:17;;;;;;;4.65;2.60;;;;;;;14.84;100.00;100796.88;5070859;28;20044;-76
2022/08/02 01:32:47;;;;;;;9.57;2.70;;;;;;;14.90;100.00;100807.09;5086480;28;20040;-74
2022/08/02 01:35:16;;;;;;;4.68;2.30;;;;;;;14.64;100.00;100768.13;5068695;28;20621;-73
2022/08/02 01:37:52;;;;;;;5.43;2.40;;;;;;;14.79;100.00;100793.66;5071316;28;20440;-73
2022/08/02 01:40:27;;;;;;;3.95;2.30;;;;;;;14.86;100.00;100804.72;5079130;28;20082;-73
2022/08/02 01:42:54;;;;;;;4.85;1.85;;;;;;;14.69;100.00;100774.88;5064164;28;20468;-73
2022/08/02 01:45:21;;;;;;;10.70;2.15;;;;;;;14.72;100.00;100776.47;5074685;28;20017;-74
2022/08/02 01:47:48;;;;;;;6.85;3.05;;;;;;;14.85;100.00;100793.28;5059042;28;20025;-73
2022/08/02 01:50:15;;;;;;;4.80;2.08;;;;;;;14.87;100.00;100786.09;5069091;28;20391;-75
2022/08/02 01:52:44;;;;;;;4.82;2.67;;;;;;;14.76;100.00;100772.69;5072699;28;20522;-74
2022/08/02 01:55:12;;;;;;;5.90;2.70;;;;;;;14.76;100.00;100770.06;5050971;28;20021;-74
2022/08/02 01:57:46;;;;;;;6.50;2.55;;;;;;;14.77;100.00;100764.66;5058329;28;20031;-75
2022/08/02 02:00:14;;;;;;;4.35;2.20;;;;;;;14.91;100.00;100798.19;5068773;28;20025;-74
2022/08/02 02:02:42;;;;;;;7.38;2.90;;;;;;;14.77;100.00;100774.38;5061767;28;20092;-73
2022/08/02 02:05:11;;;;;;;6.57;2.75;;;;;;;14.82;100.00;100782.91;5057667;28;20041;-74
2022/08/02 02:07:37;;;;;;;4.70;2.78;;;;;;;14.63;100.00;100771.75;5084213;28;20111;-74
2022/08/02 02:10:03;;;;;;;5.55;2.85;;;;;;;14.58;100.00;100787.03;5058619;28;20505;-74
2022/08/02 02:12:30;;;;;;;5.70;2.50;;;;;;;14.75;100.00;100793.00;5055222;28;20029;-74
2022/08/02 02:14:57;;;;;;;6.90;2.10;;;;;;;14.77;100.00;100791.09;5069490;28;20086;-74
2022/08/02 02:17:23;;;;;;;4.03;2.40;;;;;;;14.63;100.00;100785.81;5054740;28;20040;-74
2022/08/02 02:19:50;;;;;;;4.93;2.50;;;;;;;14.47;100.00;100765.66;5078529;28;20068;-74
2022/08/02 02:22:15;;;;;;;5.72;2.28;;;;;;;14.53;100.00;100774.06;5057347;28;20037;-74
2022/08/02 02:24:41;;;;;;;3.90;2.60;;;;;;;14.39;100.00;100752.06;5093481;28;20095;-74
2022/08/02 02:27:08;;;;;;;7.03;3.05;;;;;;;14.46;100.00;100771.91;5051967;28;20025;-74
2022/08/02 02:29:34;;;;;;;4.75;2.63;;;;;;;14.27;100.00;100749.19;5058141;28;20111;-74
2022/08/02 02:31:59;;;;;;;5.15;2.58;;;;;;;14.14;100.00;100723.56;5063077;28;20471;-74
2022/08/02 02:34:31;;;;;;;5.00;2.90;;;;;;;14.31;100.00;100750.69;5067359;28;20036;-75
2022/08/02 02:37:13;;;;;;;7.15;3.00;;;;;;;14.32;100.00;100763.00;5094751;28;20024;-75
2022/08/02 02:39:41;;;;;;;6.97;2.75;;;;;;;14.28;100.00;100756.19;5074125;28;20098;-75
2022/08/02 02:42:08;;;;;;;4.32;2.60;;;;;;;14.18;100.00;100746.25;5061863;28;20029;-75
2022/08/02 02:44:35;;;;;;;4.65;2.75;;;;;;;14.24;100.00;100757.28;5067807;28;20037;-75
2022/08/02 02:47:01;;;;;;;5.85;3.20;;;;;;;14.13;100.00;100738.56;5071310;28;20512;-75
2022/08/02 02:49:26;;;;;;;5.75;2.50;;;;;;;14.19;100.00;100751.41;5090724;28;20047;-75
2022/08/02 02:51:52;;;;;;;8.40;3.17;;;;;;;14.01;100.00;100720.81;5079235;28;20036;-75
2022/08/02 02:54:18;;;;;;;4.97;3.03;;;;;;;14.05;100.00;100732.06;5080652;28;20384;-75
2022/08/02 02:56:44;;;;;;;5.25;2.88;;;;;;;13.64;100.00;100668.44;5075007;28;20077;-75
2022/08/02 02:59:11;;;;;;;4.13;2.47;;;;;;;13.87;100.00;100718.13;5076366;28;20489;-75
2022/08/02 03:01:38;;;;;;;6.60;2.75;;;;;;;13.76;100.00;100700.25;5082410;28;20041;-74
2022/08/02 03:04:06;;;;;;;4.25;2.53;;;;;;;13.88;100.00;100719.84;5056590;28;20086;-75
2022/08/02 03:06:31;;;;;;;7.47;3.03;;;;;;;14.06;100.00;100745.16;5071258;28;20021;-75
2022/08/02 03:08:57;;;;;;;5.95;3.88;;;;;;;14.05;100.00;100746.13;5083192;28;20475;-73
2022/08/02 03:11:23;;;;;;;5.80;3.47;;;;;;;14.08;100.00;100742.44;5078999;28;20031;-73
2022/08/02 03:13:49;;;;;;;4.68;2.72;;;;;;;14.08;100.00;100740.66;5083993;28;20183;-73
2022/08/02 03:16:15;;;;;;;7.47;3.88;;;;;;;13.78;100.00;100692.25;5074429;28;20112;-74
2022/08/02 03:18:42;;;;;;;6.38;3.20;;;;;;;13.85;100.00;100714.75;5082823;28;20055;-74
2022/08/02 03:21:10;;;;;;;6.35;3.45;;;;;;;13.92;100.00;100726.66;5076290;28;20024;-74
2022/08/02 03:23:37;;;;;;;7.65;3.75;;;;;;;13.80;100.00;100717.63;5076958;28;20103;-75
2022/08/02 03:26:03;;;;;;;7.30;3.42;;;;;;;13.85;100.00;100722.66;5080858;28;20032;-75
2022/08/02 03:28:29;;;;;;;5.07;3.20;;;;;;;13.82;100.00;100709.63;5086614;28;20415;-74
2022/08/02 03:30:54;;;;;;;4.45;3.05;;;;;;;13.75;100.00;100710.94;5072156;28;20028;-74
2022/08/02 03:33:20;;;;;;;6.03;3.78;;;;;;;13.90;100.00;100727.66;5067683;28;20032;-75
2022/08/02 03:35:47;;;;;;;6.03;3.72;;;;;;;13.92;100.00;100741.66;5062763;28;20044;-74
2022/08/02 03:38:14;;;;;;;7.03;4.30;;;;;;;13.85;100.00;100732.38;5075327;28;20025;-74
2022/08/02 03:40:42;;;;;;;8.98;5.20;;;;;;;13.50;100.00;100686.88;5061455;28;20110;-74
2022/08/02 03:43:08;;;;;;;8.30;4.22;;;;;;;13.77;100.00;100723.09;5077676;28;20032;-74
2022/08/02 03:45:35;;;;;;;6.35;4.07;;;;;;;13.90;100.00;100739.09;5079678;28;20039;-74
2022/08/02 03:48:02;;;;;;;6.80;4.40;;;;;;;13.77;100.00;100719.59;5052292;28;20112;-73
2022/08/02 03:50:28;;;;;;;8.68;4.68;;;;;;;13.78;100.00;100701.03;5069266;28;20082;-73
2022/08/02 03:52:53;;;;;;;10.50;5.25;;;;;;;13.99;100.00;100730.59;5067897;28;20033;-74
2022/08/02 03:55:19;;;;;;;11.45;4.38;;;;;;;13.90;100.00;100733.78;5055333;28;20090;-73
2022/08/02 03:57:44;;;;;;;7.30;4.05;;;;;;;14.08;100.00;100748.59;5070266;28;20094;-73
2022/08/02 04:00:12;;;;;;;9.90;4.35;;;;;;;13.96;100.00;100722.88;5074249;28;20111;-73
2022/08/02 04:02:38;;;;;;;5.68;4.18;;;;;;;14.12;100.00;100749.25;5104937;27;20504;-76
2022/08/02 04:05:03;;;;;;;6.15;4.32;;;;;;;14.00;100.00;100724.38;5075586;28;20025;-73
2022/08/02 04:07:29;;;;;;;7.85;4.18;;;;;;;14.15;100.00;100749.94;5072245;28;20493;-74
2022/08/02 04:09:54;;;;;;;5.47;3.72;;;;;;;13.79;100.00;100694.78;5062740;28;20029;-74
2022/08/02 04:12:20;;;;;;;5.88;4.10;;;;;;;13.88;100.00;100709.28;5069251;28;20066;-75
2022/08/02 04:14:45;;;;;;;6.97;4.72;;;;;;;14.04;100.00;100740.91;5071112;28;20436;-74
2022/08/02 04:17:11;;;;;;;7.43;4.88;;;;;;;14.06;100.00;100731.94;5082648;28;20035;-74
2022/08/02 04:19:45;;;;;;;6.35;4.38;;;;;;;14.02;100.00;100733.09;5065760;28;20069;-74
2022/08/02 04:22:19;;;;;;;5.78;4.32;;;;;;;14.07;100.00;100736.31;5077358;28;20486;-74
2022/08/02 04:24:49;;;;;;;6.22;4.32;;;;;;;13.95;100.00;100722.97;5074726;28;20032;-74
2022/08/02 04:27:14;;;;;;;8.52;4.63;;;;;;;13.94;100.00;100721.25;5080904;28;20070;-74
2022/08/02 04:29:40;;;;;;;7.88;4.68;;;;;;;14.02;100.00;100735.75;5070843;28;20024;-74
2022/08/02 04:32:06;;;;;;;6.25;4.75;;;;;;;14.13;100.00;100743.00;5065427;28;20452;-74
2022/08/02 04:34:32;;;;;;;5.82;4.05;;;;;;;14.03;100.00;100724.22;5058170;28;20434;-74
2022/08/02 04:36:58;;;;;;;5.93;4.00;;;;;;;14.02;100.00;100727.81;5069071;28;20036;-74
2022/08/02 04:39:24;;;;;;;7.55;4.75;;;;;;;14.14;100.00;100732.34;5073113;28;20028;-74
2022/08/02 04:41:50;;;;;;;8.05;5.22;;;;;;;14.05;100.00;100711.78;5048326;28;20032;-75
2022/08/02 04:44:15;;;;;;;7.05;5.18;;;;;;;14.21;100.00;100738.97;5061268;28;20056;-75
2022/08/02 04:46:42;;;;;;;8.95;5.13;;;;;;;14.24;100.00;100744.09;5071823;28;20491;-74
2022/08/02 04:49:07;;;;;;;9.73;7.00;;;;;;;14.26;100.00;100730.78;5073167;28;20017;-74
2022/08/02 04:51:37;;;;;;;11.75;6.63;;;;;;;14.49;100.00;100750.56;5073695;28;20053;-74
2022/08/02 04:54:03;;;;;;;8.82;6.97;;;;;;;14.58;100.00;100752.66;5054215;28;20028;-74
2022/08/02 04:56:29;;;;;;;8.43;6.35;;;;;;;14.67;100.00;100746.78;5082142;28;20036;-74
2022/08/02 04:58:54;;;;;;;9.10;7.38;;;;;;;14.70;100.00;100733.41;5074408;28;20040;-74
2022/08/02 05:01:20;;;;;;;11.32;7.05;;;;;;;14.59;100.00;100714.69;5059592;28;20094;-74
2022/08/02 05:03:45;;;;;;;10.45;6.35;;;;;;;14.64;100.00;100725.81;5074568;28;20029;-74
2022/08/02 05:06:10;;;;;;;11.63;7.00;;;;;;;14.66;100.00;100722.16;5078559;28;20122;-74
2022/08/02 05:08:36;;;;;;;10.10;6.30;;;;;;;14.73;100.00;100722.63;5060516;28;20103;-74
2022/08/02 05:11:01;;;;;;;8.18;6.70;;;;;;;14.83;100.00;100737.84;5061496;28;20024;-74
2022/08/02 05:13:27;;;;;;;7.47;5.35;;;;;;;14.82;100.00;100736.13;5071793;28;20503;-74
2022/08/02 05:15:52;;;;;;;10.70;6.85;;;;;;;14.56;100.00;100691.09;5062855;28;20467;-74
2022/08/02 05:18:17;;;;;;;8.90;5.80;;;;;;;14.69;100.00;100705.25;5081537;28;20059;-74
2022/08/02 05:20:43;;;;;;;12.90;7.55;;;;;;;15.06;100.00;100739.03;5076572;28;20437;-74
2022/08/02 05:23:08;;;;;;;8.70;5.85;;;;;;;15.17;100.00;100738.34;5082735;28;20032;-74
2022/08/02 05:25:34;;;;;;;8.98;7.15;;;;;;;15.12;100.00;100721.91;5078928;28;20450;-74
2022/08/02 05:28:03;;;;;;;10.50;6.57;;;;;;;15.23;100.00;100730.88;5074311;28;20031;-75
2022/08/02 05:30:28;;;;;;;11.43;7.65;;;;;;;15.25;100.00;100713.06;5068876;28;20052;-75
2022/08/02 05:32:54;;;;;;;8.70;6.30;;;;;;;15.29;100.00;100709.28;5077304;28;20024;-74
2022/08/02 05:35:21;;;;;;;8.10;6.35;;;;;;;15.59;100.00;100737.41;5072552;28;20115;-74
2022/08/02 05:37:47;;;;;;;8.07;6.40;;;;;;;15.57;100.00;100720.78;5075641;28;20428;-75
2022/08/02 05:40:13;;;;;;;8.00;6.60;;;;;;;15.39;100.00;100687.50;5047145;28;20036;-74
2022/08/02 05:42:38;;;;;;;7.25;5.85;;;;;;;15.89;100.00;100751.28;5053697;28;20016;-74
2022/08/02 05:45:04;;;;;;;9.63;6.47;;;;;;;15.85;100.00;100724.13;5062800;28;20127;-73
2022/08/02 05:47:30;;;;;;;10.27;6.60;;;;;;;16.17;100.00;100745.84;5072658;28;20052;-74
2022/08/02 05:49:55;;;;;;;11.27;5.75;;;;;;;16.20;100.00;100732.38;5082379;28;20470;-74
2022/08/02 05:52:24;;;;;;;7.63;5.82;;;;;;;16.32;100.00;100739.47;5062212;28;20027;-73
2022/08/02 05:54:58;;;;;;;9.45;5.53;;;;;;;16.47;100.00;100737.56;5073940;28;20471;-74
2022/08/02 05:58:00;;;;;;;8.75;5.63;;;;;;;16.70;100.00;100743.97;5078491;28;20138;-74
2022/08/02 06:00:30;;;;;;;7.45;5.78;;;;;;;16.84;100.00;100735.88;5050595;28;20395;-73
2022/08/02 06:03:16;;;;;;;10.02;5.78;;;;;;;17.02;100.00;100739.06;5065854;28;20017;-74
2022/08/02 06:05:50;;;;;;;5.97;4.30;;;;;;;17.15;100.00;100740.72;5094675;27;20029;-74
2022/08/02 06:08:15;;;;;;;5.40;4.43;;;;;;;16.97;100.00;100702.19;5062735;28;20033;-74
2022/08/02 06:10:42;;;;;;;6.18;4.60;;;;;;;17.11;100.00;100718.00;5059728;28;20055;-74
2022/08/02 06:13:12;;;;;;;7.88;4.47;;;;;;;17.08;100.00;100704.94;5072298;28;20055;-73
2022/08/02 06:15:38;;;;;;;5.13;4.30;;;;;;;17.44;100.00;100745.75;5058971;28;20040;-74
2022/08/02 06:18:05;;;;;;;6.45;4.63;;;;;;;17.49;100.00;100730.28;5068933;28;20059;-74
2022/08/02 06:20:34;;;;;;;5.95;4.28;;;;;;;17.62;100.00;100744.41;5058590;28;20107;-74
2022/08/02 06:23:03;;;;;;;6.22;4.13;;;;;;;17.65;100.00;100730.88;5053470;28;20471;-74
2022/08/02 06:25:30;;;;;;;5.68;4.55;;;;;;;17.79;100.00;100739.53;5073627;28;20024;-74
2022/08/02 06:27:56;;;;;;;12.00;4.43;;;;;;;18.02;100.00;100753.75;5067135;28;20032;-74
2022/08/02 06:30:22;;;;;;;7.15;4.90;;;;;;;17.97;100.00;100737.31;5058252;28;20036;-74
2022/08/02 06:32:50;;;;;;;5.25;4.25;;;;;;;18.20;100.00;100751.53;5058247;28;20029;-74
2022/08/02 06:35:16;;;;;;;5.13;4.10;;;;;;;18.25;100.00;100750.19;5055616;28;20033;-74
2022/08/02 06:37:55;;;;;;;9.05;5.18;;;;;;;18.39;100.00;100757.97;5055029;28;20369;-74
2022/08/02 06:40:35;;;;;;;7.07;5.20;;;;;;;18.50;100.00;100761.63;5060088;28;20060;-74
2022/08/02 06:43:17;;;;;;;6.90;5.07;;;;;;;18.65;100.00;100763.16;5066629;28;20029;-74
2022/08/02 06:45:42;;;;;;;5.95;4.32;;;;;;;18.75;100.00;100754.31;5050784;28;20033;-74
2022/08/02 06:48:08;;;;;;;8.02;4.95;;;;;;;18.85;100.00;100765.09;5070214;28;20505;-74
2022/08/02 06:50:34;;;;;;;6.93;4.20;;;;;;;19.03;100.00;100763.63;5073578;28;20035;-75
2022/08/02 06:52:59;;;;;;;9.57;4.72;;;;;;;19.15;100.00;100757.34;5083113;28;20024;-74
2022/08/02 06:55:27;;;;;;;6.60;3.97;;;;;;;19.30;100.00;100755.25;5072685;28;20027;-74
2022/08/02 06:57:52;;;;;;;11.43;4.50;;;;;;;19.46;100.00;100761.09;5068875;28;20033;-75
2022/08/02 07:00:17;;;;;;;10.25;4.68;;;;;;;19.47;100.00;100736.09;5063748;28;20033;-74
2022/08/02 07:02:43;;;;;;;19.83;5.57;;;;;;;19.54;100.00;100747.97;5059152;28;20052;-74
2022/08/02 07:05:08;;;;;;;13.00;5.53;;;;;;;19.71;100.00;100762.56;5065237;28;20351;-74
2022/08/02 07:07:34;;;;;;;16.58;5.05;;;;;;;19.58;100.00;100751.22;5070642;28;22366;-74
2022/08/02 07:09:59;;;;;;;24.23;6.18;;;;;;;19.34;100.00;100712.25;5063306;28;20020;-74
2022/08/02 07:12:25;;;;;;;8.57;3.72;;;;;;;19.48;100.00;100720.97;5064761;28;20029;-74
2022/08/02 07:14:51;;;;;;;9.13;5.03;;;;;;;19.73;100.00;100747.31;5084659;28;20455;-74
2022/08/02 07:17:16;;;;;;;7.82;4.22;;;;;;;19.82;100.00;100760.72;5066843;28;20036;-74
2022/08/02 07:19:41;;;;;;;10.55;4.82;;;;;;;19.82;100.00;100750.06;5052838;28;20033;-74
2022/08/02 07:22:07;;;;;;;11.30;4.70;;;;;;;19.83;100.00;100737.56;5055442;28;20468;-74
2022/08/02 07:24:32;;;;;;;8.88;3.95;;;;;;;19.97;100.00;100757.75;5053587;28;20494;-74
2022/08/02 07:26:58;;;;;;;12.90;4.90;;;;;;;19.97;100.00;100744.41;5066217;28;20036;-75
2022/08/02 07:29:24;;;;;;;6.88;4.03;;;;;;;20.12;100.00;100745.78;5057351;28;20028;-75
2022/08/02 07:31:50;;;;;;;14.32;4.03;;;;;;;20.12;100.00;100725.28;5056592;28;20025;-75
2022/08/02 07:34:15;;;;;;;8.23;3.58;;;;;;;20.28;100.00;100739.06;5077164;28;20032;-75
2022/08/02 07:36:41;;;;;;;5.55;3.30;;;;;;;20.45;100.00;100742.94;5065919;28;20025;-75
2022/08/02 07:39:06;;;;;;;5.50;3.25;;;;;;;20.52;100.00;100741.44;5085425;28;20090;-74
2022/08/02 07:41:31;;;;;;;9.43;3.22;;;;;;;20.68;100.00;100744.50;5064075;28;20029;-74
2022/08/02 07:43:57;;;;;;;4.85;2.90;;;;;;;20.80;100.00;100742.56;5078292;28;20107;-74
2022/08/02 07:46:22;;;;;;;4.20;2.30;;;;;;;20.98;100.00;100759.69;5056013;28;20039;-73
2022/08/02 07:48:48;;;;;;;5.07;2.55;;;;;;;21.03;100.00;100746.75;5060482;28;20078;-74
2022/08/02 07:51:14;;;;;;;4.10;2.35;;;;;;;21.00;100.00;100724.78;5053533;28;20077;-75
2022/08/02 07:53:39;;;;;;;3.90;2.75;;;;;;;21.05;100.00;100723.44;5069142;28;20078;-75
2022/08/02 07:56:05;;;;;;;8.00;3.20;;;;;;;21.20;100.00;100730.09;5058855;28;20170;-75
2022/08/02 07:58:30;;;;;;;13.63;3.35;;;;;;;21.43;100.00;100754.78;5059041;28;20040;-73
2022/08/02 08:00:56;;;;;;;6.80;2.92;;;;;;;21.49;100.00;100753.41;5062473;28;20028;-73
2022/08/02 08:03:21;;;;;;;5.75;2.45;;;;;;;21.64;100.00;100760.88;5059389;28;20028;-73
2022/08/02 08:05:46;;;;;;;5.65;3.08;;;;;;;21.72;100.00;100749.47;5062076;28;20131;-73
2022/08/02 08:08:12;;;;;;;10.25;3.05;;;;;;;21.72;100.00;100749.47;5068522;28;20161;-73
2022/08/02 08:10:39;;;;;;;5.75;2.60;;;;;;;21.80;100.00;100746.94;5058345;28;20059;-74
2022/08/02 08:13:05;;;;;;;8.82;2.58;;;;;;;21.83;100.00;100746.69;5060625;28;20071;-74
2022/08/02 08:15:30;;;;;;;6.97;2.55;;;;;;;21.95;100.00;100750.06;5069501;28;20507;-74
2022/08/02 08:17:55;;;;;;;4.38;2.47;;;;;;;21.92;100.00;100745.84;5070381;28;20491;-74
2022/08/02 08:20:21;;;;;;;4.43;2.40;;;;;;;22.02;100.00;100741.34;5047702;28;20444;-73
2022/08/02 08:22:47;;;;;;;15.63;3.00;;;;;;;22.11;100.00;100751.19;5062930;28;20024;-73
2022/08/02 08:25:12;;;;;;;6.38;3.05;;;;;;;22.17;100.00;100734.56;5072357;28;20039;-72
2022/08/02 08:27:50;;;;;;;12.75;3.17;;;;;;;22.25;100.00;100734.69;5068906;28;20494;-73
2022/08/02 08:30:16;;;;;;;9.07;2.50;;;;;;;22.23;100.00;100722.44;5072023;28;20020;-73
2022/08/02 08:32:42;;;;;;;5.18;2.50;;;;;;;22.27;100.00;100719.31;5068502;28;20035;-74
2022/08/02 08:35:08;;;;;;;9.13;2.22;;;;;;;22.46;100.00;100722.94;5061577;28;20032;-75
2022/08/02 08:37:34;;;;;;;3.22;1.98;;;;;;;22.56;100.00;100729.13;5058830;28;20448;-75
2022/08/02 08:40:00;;;;;;;3.70;2.13;;;;;;;22.70;100.00;100742.09;5056703;28;20481;-75
2022/08/02 08:42:26;;;;;;;11.05;3.13;;;;;;;22.72;100.00;100732.06;5057894;28;20029;-71
2022/08/02 08:44:51;;;;;;;8.55;3.35;;;;;;;22.55;100.00;100692.59;5085476;28;20032;-73
2022/08/02 08:47:17;;;;;;;8.68;2.58;;;;;;;22.47;100.00;100671.09;5066926;28;20561;-73
2022/08/02 08:49:44;;;;;;;7.25;2.83;;;;;;;22.95;100.00;100738.72;5074401;28;20044;-74
2022/08/02 08:52:10;;;;;;;6.55;3.00;;;;;;;23.12;100.00;100742.47;5067580;28;20066;-73
2022/08/02 08:54:36;;;;;;;15.55;3.05;;;;;;;23.10;100.00;100723.00;5068498;28;20375;-72
2022/08/02 08:57:05;;;;;;;5.45;2.38;;;;;;;22.93;100.00;100695.16;5078517;28;20032;-75
2022/08/02 08:59:30;;;;;;;4.97;2.05;;;;;;;23.25;100.00;100733.06;5055551;28;20035;-73
2022/08/02 09:01:56;;;;;;;4.68;2.15;;;;;;;23.19;100.00;100717.59;5057631;28;20849;-73
2022/08/02 09:04:22;;;;;;;5.47;2.17;;;;;;;23.30;100.00;100719.22;5073432;28;20027;-74
2022/08/02 09:06:47;;;;;;;5.07;2.35;;;;;;;23.40;100.00;100728.06;5077383;28;20475;-73
2022/08/02 09:09:13;;;;;;;4.35;1.83;;;;;;;23.37;100.00;100717.63;5068805;28;20033;-73
2022/08/02 09:11:38;;;;;;;8.35;2.25;;;;;;;23.52;100.00;100728.72;5039006;28;20025;-71
2022/08/02 09:14:04;;;;;;;7.57;2.47;;;;;;;23.61;100.00;100714.38;5054876;28;20479;-73
2022/08/02 09:16:40;;;;;;;4.78;1.90;;;;;;;23.76;100.00;100724.44;5091310;28;20032;-72
2022/08/02 09:19:22;;;;;;;11.05;2.55;;;;;;;23.79;100.00;100717.94;5054580;28;20025;-75
2022/08/02 09:21:49;;;;;;;4.80;2.08;;;;;;;23.87;100.00;100710.78;5057983;28;20028;-72
2022/08/02 09:24:22;;;;;;;10.35;1.95;;;;;;;24.00;100.00;100725.63;5055462;28;20033;-72
2022/08/02 09:26:49;;;;;;;8.93;2.47;;;;;;;24.06;100.00;100716.97;5062827;28;20411;-73
2022/08/02 09:29:15;;;;;;;8.93;3.13;;;;;;;24.12;100.00;100721.72;5067045;28;20070;-74
2022/08/02 09:31:41;;;;;;;9.70;2.47;;;;;;;24.20;100.00;100735.25;5057014;28;20029;-75
2022/08/02 09:34:07;;;;;;;6.13;2.22;;;;;;;24.04;100.00;100709.06;5061120;28;20765;-76
2022/08/02 09:36:41;;;;;;;6.97;1.98;;;;;;;24.21;100.00;100727.03;5060949;28;20128;-75
2022/08/02 09:39:09;;;;;;;4.82;2.22;;;;;;;24.26;100.00;100711.31;5061210;28;20021;-74
2022/08/02 09:41:39;;;;;;;5.97;2.13;;;;;;;24.49;100.00;100732.25;5057665;28;20028;-76
2022/08/02 09:44:06;;;;;;;4.18;2.42;;;;;;;24.62;100.00;100736.22;5077474;28;20029;-73
2022/08/02 09:46:36;;;;;;;9.35;2.42;;;;;;;24.54;100.00;100717.34;5081249;28;20039;-72
2022/08/02 09:49:03;;;;;;;5.75;2.00;;;;;;;24.52;100.00;100695.16;5068286;28;20024;-75
2022/08/02 09:51:31;;;;;;;4.45;2.03;;;;;;;24.83;100.00;100738.56;5045620;28;20506;-72
2022/08/02 09:53:59;;;;;;;4.10;2.28;;;;;;;24.86;100.00;100722.09;5068839;28;20024;-73
2022/08/02 09:56:25;;;;;;;4.35;2.17;;;;;;;24.73;100.00;100700.16;5053275;28;20036;-74
2022/08/02 09:58:53;;;;;;;4.65;2.20;;;;;;;24.77;100.00;100715.78;5055647;28;20021;-73
2022/08/02 10:01:31;;;;;;;4.88;2.22;;;;;;;24.83;100.00;100719.72;5059222;28;20028;-74
2022/08/02 10:03:58;;;;;;;7.28;2.38;;;;;;;24.67;100.00;100708.88;5072505;28;20047;-76
2022/08/02 10:06:24;;;;;;;6.97;2.22;;;;;;;24.70;100.00;100704.03;5061402;28;20062;-74
2022/08/02 10:08:52;;;;;;;4.90;2.30;;;;;;;24.96;100.00;100724.66;5053623;28;20043;-73
2022/08/02 10:11:18;;;;;;;9.57;2.42;;;;;;;24.72;100.00;100660.81;5098382;28;20035;-72
2022/08/02 10:13:44;;;;;;;3.17;1.90;;;;;;;25.11;100.00;100710.41;5048725;28;20151;-74
2022/08/02 10:16:10;;;;;;;3.33;2.20;;;;;;;25.15;100.00;100703.72;5056221;28;20056;-73
2022/08/02 10:18:35;;;;;;;7.00;2.60;;;;;;;25.18;100.00;100706.06;5072324;28;20096;-75
2022/08/02 10:21:01;;;;;;;4.38;1.88;;;;;;;25.24;100.00;100721.59;5056242;28;20078;-71
2022/08/02 10:23:28;;;;;;;4.38;2.08;;;;;;;24.90;100.00;100667.00;5056682;28;20023;-75
2022/08/02 10:25:55;;;;;;;4.43;2.58;;;;;;;25.13;100.00;100692.28;5059651;28;20020;-73
2022/08/02 10:28:30;;;;;;;12.75;2.50;;;;;;;25.28;100.00;100709.47;5054942;28;20028;-75
2022/08/02 10:30:55;;;;;;;2.80;1.80;;;;;;;25.48;100.00;100696.59;5056155;28;20052;-76
2022/08/02 10:33:22;;;;;;;7.72;1.83;;;;;;;25.69;100.00;100706.88;5098606;28;20025;-71
2022/08/02 10:35:50;;;;;;;5.75;2.35;;;;;;;25.70;100.00;100701.34;5057620;28;20024;-72
2022/08/02 10:38:17;;;;;;;4.55;2.80;;;;;;;25.77;100.00;100706.91;5067904;28;20098;-72
2022/08/02 10:40:49;;;;;;;4.90;2.15;;;;;;;25.67;100.00;100679.31;5053870;28;20025;-73
2022/08/02 10:43:30;;;;;;;4.68;2.42;;;;;;;25.94;100.00;100714.00;5062233;28;20028;-72
2022/08/02 10:46:30;;;;;;;5.70;2.33;;;;;;;25.94;100.00;100716.69;5053000;28;20069;-74
2022/08/02 10:49:01;;;;;;;4.75;2.35;;;;;;;26.10;100.00;100702.34;5070388;28;20029;-75
2022/08/02 10:51:58;;;;;;;5.72;2.33;;;;;;;26.49;100.00;100707.91;5081169;28;20028;-76
2022/08/02 10:54:25;;;;;;;6.63;2.50;;;;;;;26.55;99.87;100696.44;5067637;28;20040;-78
2022/08/02 10:56:53;;;;;;;5.00;2.40;;;;;;;26.39;99.75;100681.16;5055247;28;20897;-73
2022/08/02 10:59:28;;;;;;;4.13;1.88;;;;;;;26.34;98.59;100684.34;5056685;28;20025;-75
2022/08/02 11:02:01;;;;;;;3.90;2.17;;;;;;;26.34;95.90;100700.50;5055749;28;20074;-75
2022/08/02 11:04:35;;;;;;;3.58;1.88;;;;;;;26.27;95.42;100693.28;5077768;28;20052;-76
2022/08/02 11:07:06;;;;;;;5.57;2.35;;;;;;;26.33;96.75;100696.13;5066797;28;20318;-75
2022/08/02 11:09:32;;;;;;;16.23;2.13;;;;;;;26.26;93.37;100680.84;5078701;28;20035;-73
2022/08/02 11:12:02;;;;;;;4.32;2.10;;;;;;;26.40;95.91;100690.91;5046908;28;20032;-72
2022/08/02 11:14:27;;;;;;;4.10;2.13;;;;;;;26.48;95.04;100690.03;5076123;28;20028;-74
2022/08/02 11:16:56;;;;;;;5.10;2.33;;;;;;;26.60;92.07;100689.50;5073028;28;20112;-71
2022/08/02 11:19:27;;;;;;;3.72;1.95;;;;;;;26.63;92.67;100693.72;5057549;28;20080;-74